Saturday, December 16, 2017, 8:17 PM CST
Back to Local

KWLD, Strother Field

Location: Winfield, KS, United States Lat: 37.167
Local Time: 8:17 PM CST ( 2:17 GMT) Lon: -97.033
Time Zone: US/Central Elev: 1161 ft

Show me the last for .
Show Decoded

2017-12-16 19:54 METAR KWLD 170154Z AUTO 17016G22KT 10SM CLR 12/M03 A2992 RMK AO2 SLP135
                 T01221028 =
2017-12-16 18:54 METAR KWLD 170054Z AUTO 16010KT 10SM CLR 12/M03 A2991 RMK AO2 SLP131 T01171028 =
2017-12-16 17:54 METAR KWLD 162354Z AUTO 13005KT 10SM CLR 12/M03 A2989 RMK AO2 SLP123 T01171028
                 10156 20106 50003 =
2017-12-16 16:54 METAR KWLD 162254Z AUTO 18009KT 10SM CLR 13/M03 A2990 RMK AO2 PK WND 20028/2217
                 SLP127 T01281033 =
2017-12-16 15:54 METAR KWLD 162154Z AUTO 20021G31KT 10SM CLR 16/M04 A2988 RMK AO2 PK WND
                 20031/2151 SLP117 T01561044 =
2017-12-16 14:54 METAR KWLD 162054Z AUTO 19018G29KT 10SM CLR 16/M04 A2988 RMK AO2 PK WND
                 18029/2028 SLP119 T01561039 55015 =
2017-12-16 13:54 METAR KWLD 161954Z AUTO 19018G27KT 10SM CLR 16/M04 A2988 RMK AO2 PK WND
                 20030/1935 SLP117 T01561039 =
2017-12-16 12:54 METAR KWLD 161854Z AUTO 21021G28KT 10SM CLR 15/M03 A2989 RMK AO2 PK WND
                 20030/1833 SLP121 T01501028 =
2017-12-16 11:54 METAR KWLD 161754Z AUTO 20020G31KT 10SM CLR 13/M02 A2992 RMK AO2 PK WND
                 21031/1751 SLP135 T01331022 10139 20022 58008 =
2017-12-16 10:54 METAR KWLD 161654Z AUTO 19012KT 10SM CLR 11/M02 A2995 RMK AO2 SLP144 T01061017 =
2017-12-16 09:54 METAR KWLD 161554Z AUTO 20013G22KT 10SM CLR 08/M02 A2995 RMK AO2 SLP145
                 T00831022 =
2017-12-16 08:54 METAR KWLD 161454Z AUTO 18008KT 10SM CLR 05/M02 A2995 RMK AO2 SLP147 T00501022
                 51008 =
2017-12-16 07:54 METAR KWLD 161354Z AUTO 19010KT 10SM CLR 03/M03 A2995 RMK AO2 SLP147 T00331033 =
2017-12-16 06:54 METAR KWLD 161254Z AUTO 18008KT 10SM CLR 02/M03 A2993 RMK AO2 SLP143 T00221033 =
2017-12-16 05:54 METAR KWLD 161154Z AUTO 18010KT 10SM CLR 02/M03 A2992 RMK AO2 SLP139 T00221033
                 10050 20022 55009 =
2017-12-16 04:54 METAR KWLD 161054Z AUTO 18008KT 10SM CLR 03/M03 A2992 RMK AO2 SLP136 T00281033 =
2017-12-16 03:54 METAR KWLD 160954Z AUTO 20009KT 10SM CLR 03/M03 A2994 RMK AO2 SLP142 T00331033 =
2017-12-16 02:54 METAR KWLD 160854Z AUTO 19007KT 10SM CLR 03/M04 A2995 RMK AO2 SLP146 T00281039
                 58015 =
2017-12-16 01:54 METAR KWLD 160754Z AUTO 20011KT 10SM CLR 04/M04 A2997 RMK AO2 SLP151 T00441039 =
2017-12-16 00:54 METAR KWLD 160654Z AUTO 21011KT 10SM CLR 04/M04 A2999 RMK AO2 SLP158 T00441039 =
2017-12-15 23:54 METAR KWLD 160554Z AUTO 20014KT 10SM CLR 04/M04 A3000 RMK AO2 SLP163 T00441039
                 10050 20028 401001050 56013 =
2017-12-15 22:54 METAR KWLD 160454Z AUTO 19011KT 10SM CLR 04/M04 A3001 RMK AO2 SLP167 T00441039 =
2017-12-15 21:54 METAR KWLD 160354Z AUTO 19009KT 10SM CLR 04/M04 A3002 RMK AO2 SLP174 T00391039 =
2017-12-15 20:54 METAR KWLD 160254Z AUTO 18009KT 10SM CLR 03/M03 A3004 RMK AO2 SLP180 T00331033
                 56009 =

Support USWX by starting your Amazon purchase here.